sensor_id;sensor_type;location;lat;lon;timestamp;temperature;humidity
67354;SHT30;54238;52.278;21.056;2022-09-09T00:04:58;13.97;71.42
67354;SHT30;54238;52.278;21.056;2022-09-09T00:07:51;13.91;71.76
67354;SHT30;54238;52.278;21.056;2022-09-09T00:10:28;13.86;71.91
67354;SHT30;54238;52.278;21.056;2022-09-09T00:13:20;13.82;72.25
67354;SHT30;54238;52.278;21.056;2022-09-09T00:15:54;13.80;72.51
67354;SHT30;54238;52.278;21.056;2022-09-09T00:21:43;13.70;73.20
67354;SHT30;54238;52.278;21.056;2022-09-09T00:27:04;13.60;73.63
67354;SHT30;54238;52.278;21.056;2022-09-09T00:32:58;13.53;74.22
67354;SHT30;54238;52.278;21.056;2022-09-09T00:35:45;13.50;74.41
67354;SHT30;54238;52.278;21.056;2022-09-09T00:41:03;13.43;74.79
67354;SHT30;54238;52.278;21.056;2022-09-09T00:56:44;13.33;75.71
67354;SHT30;54238;52.278;21.056;2022-09-09T00:59:32;13.32;75.65
67354;SHT30;54238;52.278;21.056;2022-09-09T01:05:13;13.33;75.74
67354;SHT30;54238;52.278;21.056;2022-09-09T01:07:57;13.35;75.99
67354;SHT30;54238;52.278;21.056;2022-09-09T01:11:05;13.33;75.99
67354;SHT30;54238;52.278;21.056;2022-09-09T01:13:29;13.35;75.97
67354;SHT30;54238;52.278;21.056;2022-09-09T01:16:04;13.35;76.02
67354;SHT30;54238;52.278;21.056;2022-09-09T01:18:39;13.35;76.12
67354;SHT30;54238;52.278;21.056;2022-09-09T01:27:34;13.31;76.27
67354;SHT30;54238;52.278;21.056;2022-09-09T01:30:11;13.35;76.62
67354;SHT30;54238;52.278;21.056;2022-09-09T01:32:49;13.33;76.79
67354;SHT30;54238;52.278;21.056;2022-09-09T01:35:27;13.32;76.68
67354;SHT30;54238;52.278;21.056;2022-09-09T01:38:24;13.34;76.86
67354;SHT30;54238;52.278;21.056;2022-09-09T01:40:54;13.36;77.00
67354;SHT30;54238;52.278;21.056;2022-09-09T01:43:21;13.35;77.22
67354;SHT30;54238;52.278;21.056;2022-09-09T01:45:51;13.34;77.20
67354;SHT30;54238;52.278;21.056;2022-09-09T01:48:25;13.33;77.16
67354;SHT30;54238;52.278;21.056;2022-09-09T01:50:59;13.34;77.26
67354;SHT30;54238;52.278;21.056;2022-09-09T01:53:26;13.33;77.28
67354;SHT30;54238;52.278;21.056;2022-09-09T02:04:36;13.34;77.16
67354;SHT30;54238;52.278;21.056;2022-09-09T02:10:03;13.35;77.26
67354;SHT30;54238;52.278;21.056;2022-09-09T02:13:12;13.37;77.31
67354;SHT30;54238;52.278;21.056;2022-09-09T02:18:34;13.40;77.17
67354;SHT30;54238;52.278;21.056;2022-09-09T02:21:11;13.41;77.35
67354;SHT30;54238;52.278;21.056;2022-09-09T02:23:42;13.41;77.26
67354;SHT30;54238;52.278;21.056;2022-09-09T02:26:17;13.40;77.34
67354;SHT30;54238;52.278;21.056;2022-09-09T02:28:50;13.42;77.54
67354;SHT30;54238;52.278;21.056;2022-09-09T02:31:24;13.41;77.64
67354;SHT30;54238;52.278;21.056;2022-09-09T02:33:57;13.41;77.64
67354;SHT30;54238;52.278;21.056;2022-09-09T02:36:31;13.42;77.64
67354;SHT30;54238;52.278;21.056;2022-09-09T02:39:09;13.43;77.58
67354;SHT30;54238;52.278;21.056;2022-09-09T02:41:40;13.43;77.66
67354;SHT30;54238;52.278;21.056;2022-09-09T02:47:27;13.41;77.70
67354;SHT30;54238;52.278;21.056;2022-09-09T02:50:11;13.41;77.85
67354;SHT30;54238;52.278;21.056;2022-09-09T02:55:55;13.42;77.84
67354;SHT30;54238;52.278;21.056;2022-09-09T02:58:34;13.43;77.74
67354;SHT30;54238;52.278;21.056;2022-09-09T03:01:08;13.45;77.74
67354;SHT30;54238;52.278;21.056;2022-09-09T03:03:39;13.48;77.65
67354;SHT30;54238;52.278;21.056;2022-09-09T03:06:08;13.51;77.64
67354;SHT30;54238;52.278;21.056;2022-09-09T03:08:36;13.51;77.42
67354;SHT30;54238;52.278;21.056;2022-09-09T03:11:07;13.54;77.43
67354;SHT30;54238;52.278;21.056;2022-09-09T03:13:40;13.54;77.49
67354;SHT30;54238;52.278;21.056;2022-09-09T03:16:12;13.57;77.55
67354;SHT30;54238;52.278;21.056;2022-09-09T03:18:39;13.58;77.67
67354;SHT30;54238;52.278;21.056;2022-09-09T03:21:14;13.57;77.74
67354;SHT30;54238;52.278;21.056;2022-09-09T03:23:41;13.56;77.83
67354;SHT30;54238;52.278;21.056;2022-09-09T03:26:08;13.57;77.88
67354;SHT30;54238;52.278;21.056;2022-09-09T03:28:37;13.58;78.05
67354;SHT30;54238;52.278;21.056;2022-09-09T03:31:04;13.58;78.09
67354;SHT30;54238;52.278;21.056;2022-09-09T03:33:39;13.58;78.30
67354;SHT30;54238;52.278;21.056;2022-09-09T03:36:10;13.58;78.33
67354;SHT30;54238;52.278;21.056;2022-09-09T03:38:41;13.58;78.33
67354;SHT30;54238;52.278;21.056;2022-09-09T03:41:08;13.59;78.42
67354;SHT30;54238;52.278;21.056;2022-09-09T03:43:36;13.60;78.54
67354;SHT30;54238;52.278;21.056;2022-09-09T03:46:09;13.60;78.52
67354;SHT30;54238;52.278;21.056;2022-09-09T03:48:39;13.60;78.51
67354;SHT30;54238;52.278;21.056;2022-09-09T03:51:06;13.61;78.60
67354;SHT30;54238;52.278;21.056;2022-09-09T03:53:34;13.60;78.63
67354;SHT30;54238;52.278;21.056;2022-09-09T03:56:05;13.60;78.70
67354;SHT30;54238;52.278;21.056;2022-09-09T03:58:37;13.64;78.70
67354;SHT30;54238;52.278;21.056;2022-09-09T04:01:10;13.65;78.62
67354;SHT30;54238;52.278;21.056;2022-09-09T04:03:44;13.64;78.49
67354;SHT30;54238;52.278;21.056;2022-09-09T04:06:14;13.65;78.54
67354;SHT30;54238;52.278;21.056;2022-09-09T04:08:47;13.68;78.61
67354;SHT30;54238;52.278;21.056;2022-09-09T04:11:21;13.69;78.63
67354;SHT30;54238;52.278;21.056;2022-09-09T04:13:55;13.70;78.60
67354;SHT30;54238;52.278;21.056;2022-09-09T04:16:27;13.72;78.68
67354;SHT30;54238;52.278;21.056;2022-09-09T04:18:55;13.74;78.72
67354;SHT30;54238;52.278;21.056;2022-09-09T04:21:29;13.74;78.73
67354;SHT30;54238;52.278;21.056;2022-09-09T04:24:02;13.74;78.79
67354;SHT30;54238;52.278;21.056;2022-09-09T04:26:29;13.75;78.89
67354;SHT30;54238;52.278;21.056;2022-09-09T04:28:59;13.76;78.94
67354;SHT30;54238;52.278;21.056;2022-09-09T04:31:26;13.76;79.00
67354;SHT30;54238;52.278;21.056;2022-09-09T04:33:55;13.77;79.00
67354;SHT30;54238;52.278;21.056;2022-09-09T04:36:24;13.76;79.11
67354;SHT30;54238;52.278;21.056;2022-09-09T04:38:54;13.74;79.15
67354;SHT30;54238;52.278;21.056;2022-09-09T04:41:24;13.74;79.09
67354;SHT30;54238;52.278;21.056;2022-09-09T04:43:54;13.74;79.08
67354;SHT30;54238;52.278;21.056;2022-09-09T04:46:23;13.74;79.17
67354;SHT30;54238;52.278;21.056;2022-09-09T04:48:51;13.74;79.14
67354;SHT30;54238;52.278;21.056;2022-09-09T04:51:19;13.74;79.20
67354;SHT30;54238;52.278;21.056;2022-09-09T04:53:46;13.75;79.30
67354;SHT30;54238;52.278;21.056;2022-09-09T04:56:19;13.75;79.27
67354;SHT30;54238;52.278;21.056;2022-09-09T04:58:53;13.76;79.28
67354;SHT30;54238;52.278;21.056;2022-09-09T05:01:25;13.79;79.33
67354;SHT30;54238;52.278;21.056;2022-09-09T05:03:54;13.81;79.24
67354;SHT30;54238;52.278;21.056;2022-09-09T05:06:24;13.83;79.25
67354;SHT30;54238;52.278;21.056;2022-09-09T05:09:00;13.83;79.22
67354;SHT30;54238;52.278;21.056;2022-09-09T05:11:31;13.81;79.22
67354;SHT30;54238;52.278;21.056;2022-09-09T05:14:06;13.81;79.19
67354;SHT30;54238;52.278;21.056;2022-09-09T05:16:38;13.84;79.19
67354;SHT30;54238;52.278;21.056;2022-09-09T05:19:11;13.85;79.26
67354;SHT30;54238;52.278;21.056;2022-09-09T05:21:38;13.87;79.33
67354;SHT30;54238;52.278;21.056;2022-09-09T05:24:08;13.87;79.20
67354;SHT30;54238;52.278;21.056;2022-09-09T05:26:37;13.87;79.24
67354;SHT30;54238;52.278;21.056;2022-09-09T05:29:09;13.87;79.39
67354;SHT30;54238;52.278;21.056;2022-09-09T05:31:43;13.87;79.46
67354;SHT30;54238;52.278;21.056;2022-09-09T05:34:10;13.88;79.51
67354;SHT30;54238;52.278;21.056;2022-09-09T05:36:40;13.88;79.61
67354;SHT30;54238;52.278;21.056;2022-09-09T05:39:07;13.88;79.64
67354;SHT30;54238;52.278;21.056;2022-09-09T05:41:34;13.89;79.70
67354;SHT30;54238;52.278;21.056;2022-09-09T05:44:02;13.90;79.70
67354;SHT30;54238;52.278;21.056;2022-09-09T05:46:32;13.90;79.71
67354;SHT30;54238;52.278;21.056;2022-09-09T05:49:02;13.91;79.80
67354;SHT30;54238;52.278;21.056;2022-09-09T05:51:33;13.91;79.81
67354;SHT30;54238;52.278;21.056;2022-09-09T05:54:00;13.92;79.81
67354;SHT30;54238;52.278;21.056;2022-09-09T05:56:29;13.94;79.78
67354;SHT30;54238;52.278;21.056;2022-09-09T05:58:56;13.95;79.84
67354;SHT30;54238;52.278;21.056;2022-09-09T06:04:03;13.96;80.01
67354;SHT30;54238;52.278;21.056;2022-09-09T06:06:33;13.96;80.00
67354;SHT30;54238;52.278;21.056;2022-09-09T06:09:08;13.99;79.94
67354;SHT30;54238;52.278;21.056;2022-09-09T06:11:39;14.01;79.93
67354;SHT30;54238;52.278;21.056;2022-09-09T06:14:07;14.01;80.03
67354;SHT30;54238;52.278;21.056;2022-09-09T06:16:42;14.00;80.13
67354;SHT30;54238;52.278;21.056;2022-09-09T06:19:10;14.01;80.20
67354;SHT30;54238;52.278;21.056;2022-09-09T06:21:39;14.06;80.14
67354;SHT30;54238;52.278;21.056;2022-09-09T06:24:11;14.10;79.99
67354;SHT30;54238;52.278;21.056;2022-09-09T06:26:46;14.12;79.95
67354;SHT30;54238;52.278;21.056;2022-09-09T06:29:15;14.14;79.99
67354;SHT30;54238;52.278;21.056;2022-09-09T06:31:47;14.17;79.97
67354;SHT30;54238;52.278;21.056;2022-09-09T06:34:21;14.17;79.78
67354;SHT30;54238;52.278;21.056;2022-09-09T06:36:48;14.18;79.78
67354;SHT30;54238;52.278;21.056;2022-09-09T06:39:18;14.19;79.80
67354;SHT30;54238;52.278;21.056;2022-09-09T06:41:49;14.20;79.77
67354;SHT30;54238;52.278;21.056;2022-09-09T06:44:22;14.22;79.91
67354;SHT30;54238;52.278;21.056;2022-09-09T06:46:53;14.25;79.91
67354;SHT30;54238;52.278;21.056;2022-09-09T06:49:25;14.26;79.96
67354;SHT30;54238;52.278;21.056;2022-09-09T06:51:52;14.28;79.80
67354;SHT30;54238;52.278;21.056;2022-09-09T06:54:24;14.30;79.74
67354;SHT30;54238;52.278;21.056;2022-09-09T06:56:53;14.33;79.79
67354;SHT30;54238;52.278;21.056;2022-09-09T06:59:20;14.35;79.81
67354;SHT30;54238;52.278;21.056;2022-09-09T07:01:50;14.38;79.71
67354;SHT30;54238;52.278;21.056;2022-09-09T07:04:23;14.41;79.62
67354;SHT30;54238;52.278;21.056;2022-09-09T07:06:50;14.44;79.54
67354;SHT30;54238;52.278;21.056;2022-09-09T07:09:22;14.48;79.48
67354;SHT30;54238;52.278;21.056;2022-09-09T07:11:51;14.49;79.43
67354;SHT30;54238;52.278;21.056;2022-09-09T07:14:23;14.51;79.43
67354;SHT30;54238;52.278;21.056;2022-09-09T07:16:50;14.50;79.25
67354;SHT30;54238;52.278;21.056;2022-09-09T07:19:20;14.50;79.19
67354;SHT30;54238;52.278;21.056;2022-09-09T07:21:49;14.50;79.31
67354;SHT30;54238;52.278;21.056;2022-09-09T07:24:17;14.52;79.42
67354;SHT30;54238;52.278;21.056;2022-09-09T07:26:46;14.55;79.51
67354;SHT30;54238;52.278;21.056;2022-09-09T07:29:15;14.57;79.44
67354;SHT30;54238;52.278;21.056;2022-09-09T07:31:44;14.61;79.36
67354;SHT30;54238;52.278;21.056;2022-09-09T07:34:11;14.64;79.31
67354;SHT30;54238;52.278;21.056;2022-09-09T07:36:39;14.64;79.04
67354;SHT30;54238;52.278;21.056;2022-09-09T07:39:09;14.66;79.08
67354;SHT30;54238;52.278;21.056;2022-09-09T07:41:45;14.70;79.03
67354;SHT30;54238;52.278;21.056;2022-09-09T07:44:17;14.70;79.00
67354;SHT30;54238;52.278;21.056;2022-09-09T07:46:48;14.69;78.92
67354;SHT30;54238;52.278;21.056;2022-09-09T07:49:18;14.70;78.97
67354;SHT30;54238;52.278;21.056;2022-09-09T07:51:47;14.73;78.99
67354;SHT30;54238;52.278;21.056;2022-09-09T07:54:17;14.77;78.86
67354;SHT30;54238;52.278;21.056;2022-09-09T07:56:52;14.77;78.88
67354;SHT30;54238;52.278;21.056;2022-09-09T07:59:22;14.82;78.99
67354;SHT30;54238;52.278;21.056;2022-09-09T08:01:52;14.85;78.85
67354;SHT30;54238;52.278;21.056;2022-09-09T08:04:25;14.85;78.74
67354;SHT30;54238;52.278;21.056;2022-09-09T08:07:00;14.88;78.87
67354;SHT30;54238;52.278;21.056;2022-09-09T08:09:30;14.92;78.72
67354;SHT30;54238;52.278;21.056;2022-09-09T08:12:00;14.93;78.58
67354;SHT30;54238;52.278;21.056;2022-09-09T08:14:33;14.93;78.53
67354;SHT30;54238;52.278;21.056;2022-09-09T08:17:06;14.93;78.52
67354;SHT30;54238;52.278;21.056;2022-09-09T08:19:33;14.93;78.43
67354;SHT30;54238;52.278;21.056;2022-09-09T08:22:08;14.95;78.43
67354;SHT30;54238;52.278;21.056;2022-09-09T08:24:42;14.94;78.39
67354;SHT30;54238;52.278;21.056;2022-09-09T08:27:12;14.97;78.59
67354;SHT30;54238;52.278;21.056;2022-09-09T08:29:46;14.99;78.50
67354;SHT30;54238;52.278;21.056;2022-09-09T08:32:13;15.02;78.45
67354;SHT30;54238;52.278;21.056;2022-09-09T08:34:42;15.04;78.40
67354;SHT30;54238;52.278;21.056;2022-09-09T08:37:16;15.03;78.51
67354;SHT30;54238;52.278;21.056;2022-09-09T08:39:46;15.03;78.60
67354;SHT30;54238;52.278;21.056;2022-09-09T08:42:35;15.03;78.35
67354;SHT30;54238;52.278;21.056;2022-09-09T08:48:01;15.04;78.22
67354;SHT30;54238;52.278;21.056;2022-09-09T08:50:50;15.04;78.25
67354;SHT30;54238;52.278;21.056;2022-09-09T08:56:03;15.10;78.46
67354;SHT30;54238;52.278;21.056;2022-09-09T08:58:52;15.15;78.21
67354;SHT30;54238;52.278;21.056;2022-09-09T09:07:28;15.22;78.17
67354;SHT30;54238;52.278;21.056;2022-09-09T09:10:36;15.26;78.05
67354;SHT30;54238;52.278;21.056;2022-09-09T09:13:20;15.28;77.95
67354;SHT30;54238;52.278;21.056;2022-09-09T09:16:24;15.27;77.89
67354;SHT30;54238;52.278;21.056;2022-09-09T09:19:02;15.29;77.81
67354;SHT30;54238;52.278;21.056;2022-09-09T09:21:38;15.31;77.92
67354;SHT30;54238;52.278;21.056;2022-09-09T09:24:18;15.35;77.87
67354;SHT30;54238;52.278;21.056;2022-09-09T09:27:01;15.40;77.85
67354;SHT30;54238;52.278;21.056;2022-09-09T09:30:12;15.41;77.78
67354;SHT30;54238;52.278;21.056;2022-09-09T09:35:27;15.44;77.55
67354;SHT30;54238;52.278;21.056;2022-09-09T09:37:55;15.45;77.48
67354;SHT30;54238;52.278;21.056;2022-09-09T09:40:23;15.46;77.46
67354;SHT30;54238;52.278;21.056;2022-09-09T09:42:59;15.43;77.47
67354;SHT30;54238;52.278;21.056;2022-09-09T09:45:41;15.44;77.63
67354;SHT30;54238;52.278;21.056;2022-09-09T09:48:14;15.47;77.81
67354;SHT30;54238;52.278;21.056;2022-09-09T09:51:08;15.48;77.83
67354;SHT30;54238;52.278;21.056;2022-09-09T09:53:42;15.48;77.87
67354;SHT30;54238;52.278;21.056;2022-09-09T09:56:13;15.51;77.93
67354;SHT30;54238;52.278;21.056;2022-09-09T09:58:50;15.53;77.91
67354;SHT30;54238;52.278;21.056;2022-09-09T10:04:13;15.60;78.02
67354;SHT30;54238;52.278;21.056;2022-09-09T10:06:48;15.64;78.03
67354;SHT30;54238;52.278;21.056;2022-09-09T10:09:28;15.66;77.86
67354;SHT30;54238;52.278;21.056;2022-09-09T10:15:34;15.71;77.79
67354;SHT30;54238;52.278;21.056;2022-09-09T10:24:22;15.78;77.54
67354;SHT30;54238;52.278;21.056;2022-09-09T10:30:04;15.83;77.60
67354;SHT30;54238;52.278;21.056;2022-09-09T10:32:39;15.80;77.34
67354;SHT30;54238;52.278;21.056;2022-09-09T10:42:08;15.79;77.46
67354;SHT30;54238;52.278;21.056;2022-09-09T10:50:52;15.75;77.54
67354;SHT30;54238;52.278;21.056;2022-09-09T10:53:45;15.78;77.62
67354;SHT30;54238;52.278;21.056;2022-09-09T10:56:20;15.82;77.42
67354;SHT30;54238;52.278;21.056;2022-09-09T11:01:25;15.88;77.40
67354;SHT30;54238;52.278;21.056;2022-09-09T11:03:59;15.90;77.44
67354;SHT30;54238;52.278;21.056;2022-09-09T11:06:48;15.93;77.26
67354;SHT30;54238;52.278;21.056;2022-09-09T11:09:25;15.92;77.33
67354;SHT30;54238;52.278;21.056;2022-09-09T11:11:59;15.93;77.55
67354;SHT30;54238;52.278;21.056;2022-09-09T11:14:40;15.89;77.48
67354;SHT30;54238;52.278;21.056;2022-09-09T11:17:18;15.88;77.61
67354;SHT30;54238;52.278;21.056;2022-09-09T11:20:14;15.87;77.58
67354;SHT30;54238;52.278;21.056;2022-09-09T11:25:42;15.91;77.49
67354;SHT30;54238;52.278;21.056;2022-09-09T11:28:37;15.92;77.53
67354;SHT30;54238;52.278;21.056;2022-09-09T11:37:35;15.93;77.60
67354;SHT30;54238;52.278;21.056;2022-09-09T11:40:44;15.98;77.81
67354;SHT30;54238;52.278;21.056;2022-09-09T11:43:17;16.04;77.81
67354;SHT30;54238;52.278;21.056;2022-09-09T11:45:55;16.06;77.62
67354;SHT30;54238;52.278;21.056;2022-09-09T11:48:37;16.07;77.56
67354;SHT30;54238;52.278;21.056;2022-09-09T11:56:29;16.24;77.47
67354;SHT30;54238;52.278;21.056;2022-09-09T12:02:22;16.37;77.33
67354;SHT30;54238;52.278;21.056;2022-09-09T12:05:06;16.41;77.20
67354;SHT30;54238;52.278;21.056;2022-09-09T12:13:09;16.51;76.76
67354;SHT30;54238;52.278;21.056;2022-09-09T12:15:51;16.51;76.67
67354;SHT30;54238;52.278;21.056;2022-09-09T12:18:24;16.50;76.60
67354;SHT30;54238;52.278;21.056;2022-09-09T12:24:07;16.48;76.84
67354;SHT30;54238;52.278;21.056;2022-09-09T12:26:59;16.50;76.81
67354;SHT30;54238;52.278;21.056;2022-09-09T12:29:57;16.48;76.68
67354;SHT30;54238;52.278;21.056;2022-09-09T12:32:36;16.44;76.69
67354;SHT30;54238;52.278;21.056;2022-09-09T12:37:53;16.43;76.80
67354;SHT30;54238;52.278;21.056;2022-09-09T12:40:32;16.44;76.75
67354;SHT30;54238;52.278;21.056;2022-09-09T12:43:18;16.41;76.76
67354;SHT30;54238;52.278;21.056;2022-09-09T12:45:48;16.37;76.95
67354;SHT30;54238;52.278;21.056;2022-09-09T12:48:36;16.36;77.26
67354;SHT30;54238;52.278;21.056;2022-09-09T12:51:23;16.40;77.39
67354;SHT30;54238;52.278;21.056;2022-09-09T12:53:55;16.42;77.29
67354;SHT30;54238;52.278;21.056;2022-09-09T12:56:25;16.41;77.30
67354;SHT30;54238;52.278;21.056;2022-09-09T12:58:59;16.45;77.56
67354;SHT30;54238;52.278;21.056;2022-09-09T13:01:29;16.45;77.41
67354;SHT30;54238;52.278;21.056;2022-09-09T13:04:02;16.47;77.52
67354;SHT30;54238;52.278;21.056;2022-09-09T13:06:50;16.47;77.57
67354;SHT30;54238;52.278;21.056;2022-09-09T13:09:19;16.44;77.54
67354;SHT30;54238;52.278;21.056;2022-09-09T13:11:57;16.43;77.51
67354;SHT30;54238;52.278;21.056;2022-09-09T13:14:29;16.40;77.52
67354;SHT30;54238;52.278;21.056;2022-09-09T13:17:05;16.39;77.49
67354;SHT30;54238;52.278;21.056;2022-09-09T13:19:46;16.37;77.46
67354;SHT30;54238;52.278;21.056;2022-09-09T13:27:41;16.34;77.75
67354;SHT30;54238;52.278;21.056;2022-09-09T13:30:20;16.32;77.75
67354;SHT30;54238;52.278;21.056;2022-09-09T13:33:33;16.34;77.84
67354;SHT30;54238;52.278;21.056;2022-09-09T13:35:47;16.34;77.73
67354;SHT30;54238;52.278;21.056;2022-09-09T13:38:25;16.32;77.71
67354;SHT30;54238;52.278;21.056;2022-09-09T13:41:01;16.31;77.75
67354;SHT30;54238;52.278;21.056;2022-09-09T13:43:36;16.29;77.81
67354;SHT30;54238;52.278;21.056;2022-09-09T13:51:46;16.28;77.95
67354;SHT30;54238;52.278;21.056;2022-09-09T13:54:20;16.28;77.84
67354;SHT30;54238;52.278;21.056;2022-09-09T13:56:50;16.24;77.83
67354;SHT30;54238;52.278;21.056;2022-09-09T13:59:23;16.21;78.00
67354;SHT30;54238;52.278;21.056;2022-09-09T14:01:54;16.18;78.15
67354;SHT30;54238;52.278;21.056;2022-09-09T14:04:23;16.17;78.20
67354;SHT30;54238;52.278;21.056;2022-09-09T14:06:57;16.17;78.20
67354;SHT30;54238;52.278;21.056;2022-09-09T14:09:25;16.17;78.31
67354;SHT30;54238;52.278;21.056;2022-09-09T14:11:57;16.17;78.30
67354;SHT30;54238;52.278;21.056;2022-09-09T14:14:26;16.19;78.24
67354;SHT30;54238;52.278;21.056;2022-09-09T14:16:54;16.20;78.14
67354;SHT30;54238;52.278;21.056;2022-09-09T14:19:21;16.19;78.09
67354;SHT30;54238;52.278;21.056;2022-09-09T14:21:52;16.18;78.04
67354;SHT30;54238;52.278;21.056;2022-09-09T14:24:19;16.16;78.10
67354;SHT30;54238;52.278;21.056;2022-09-09T14:26:46;16.17;78.17
67354;SHT30;54238;52.278;21.056;2022-09-09T14:29:14;16.19;78.20
67354;SHT30;54238;52.278;21.056;2022-09-09T14:31:41;16.21;78.32
67354;SHT30;54238;52.278;21.056;2022-09-09T14:34:08;16.24;78.36
67354;SHT30;54238;52.278;21.056;2022-09-09T14:36:39;16.26;78.33
67354;SHT30;54238;52.278;21.056;2022-09-09T14:39:11;16.28;78.26
67354;SHT30;54238;52.278;21.056;2022-09-09T14:41:40;16.29;78.30
67354;SHT30;54238;52.278;21.056;2022-09-09T14:44:09;16.30;78.30
67354;SHT30;54238;52.278;21.056;2022-09-09T14:46:39;16.32;78.37
67354;SHT30;54238;52.278;21.056;2022-09-09T14:49:08;16.36;78.19
67354;SHT30;54238;52.278;21.056;2022-09-09T14:51:39;16.40;78.02
67354;SHT30;54238;52.278;21.056;2022-09-09T14:54:07;16.42;78.00
67354;SHT30;54238;52.278;21.056;2022-09-09T14:56:40;16.46;77.97
67354;SHT30;54238;52.278;21.056;2022-09-09T14:59:09;16.49;77.80
67354;SHT30;54238;52.278;21.056;2022-09-09T15:01:39;16.49;77.64
67354;SHT30;54238;52.278;21.056;2022-09-09T15:04:06;16.48;77.52
67354;SHT30;54238;52.278;21.056;2022-09-09T15:06:40;16.46;77.45
67354;SHT30;54238;52.278;21.056;2022-09-09T15:09:09;16.45;77.62
67354;SHT30;54238;52.278;21.056;2022-09-09T15:11:44;16.48;77.63
67354;SHT30;54238;52.278;21.056;2022-09-09T15:14:14;16.50;77.57
67354;SHT30;54238;52.278;21.056;2022-09-09T15:16:44;16.48;77.52
67354;SHT30;54238;52.278;21.056;2022-09-09T15:19:18;16.48;77.65
67354;SHT30;54238;52.278;21.056;2022-09-09T15:21:48;16.47;77.73
67354;SHT30;54238;52.278;21.056;2022-09-09T15:24:19;16.47;77.70
67354;SHT30;54238;52.278;21.056;2022-09-09T15:26:50;16.48;77.79
67354;SHT30;54238;52.278;21.056;2022-09-09T15:29:21;16.48;77.78
67354;SHT30;54238;52.278;21.056;2022-09-09T15:31:48;16.48;77.80
67354;SHT30;54238;52.278;21.056;2022-09-09T15:34:15;16.47;77.79
67354;SHT30;54238;52.278;21.056;2022-09-09T15:36:50;16.47;77.82
67354;SHT30;54238;52.278;21.056;2022-09-09T15:39:23;16.47;77.87
67354;SHT30;54238;52.278;21.056;2022-09-09T15:41:50;16.46;77.88
67354;SHT30;54238;52.278;21.056;2022-09-09T15:44:20;16.46;77.80
67354;SHT30;54238;52.278;21.056;2022-09-09T15:46:52;16.43;77.84
67354;SHT30;54238;52.278;21.056;2022-09-09T15:49:24;16.41;77.90
67354;SHT30;54238;52.278;21.056;2022-09-09T15:52:02;16.38;77.97
67354;SHT30;54238;52.278;21.056;2022-09-09T15:54:33;16.38;78.04
67354;SHT30;54238;52.278;21.056;2022-09-09T15:57:06;16.36;78.10
67354;SHT30;54238;52.278;21.056;2022-09-09T15:59:41;16.33;78.04
67354;SHT30;54238;52.278;21.056;2022-09-09T16:02:16;16.34;78.05
67354;SHT30;54238;52.278;21.056;2022-09-09T16:04:44;16.32;78.10
67354;SHT30;54238;52.278;21.056;2022-09-09T16:07:14;16.31;78.11
67354;SHT30;54238;52.278;21.056;2022-09-09T16:09:49;16.30;78.17
67354;SHT30;54238;52.278;21.056;2022-09-09T16:12:22;16.30;78.28
67354;SHT30;54238;52.278;21.056;2022-09-09T16:14:52;16.27;78.37
67354;SHT30;54238;52.278;21.056;2022-09-09T16:17:19;16.26;78.40
67354;SHT30;54238;52.278;21.056;2022-09-09T16:19:48;16.25;78.43
67354;SHT30;54238;52.278;21.056;2022-09-09T16:22:15;16.23;78.50
67354;SHT30;54238;52.278;21.056;2022-09-09T16:24:45;16.20;78.58
67354;SHT30;54238;52.278;21.056;2022-09-09T16:27:14;16.19;78.61
67354;SHT30;54238;52.278;21.056;2022-09-09T16:29:49;16.18;78.62
67354;SHT30;54238;52.278;21.056;2022-09-09T16:32:16;16.17;78.62
67354;SHT30;54238;52.278;21.056;2022-09-09T16:34:44;16.16;78.65
67354;SHT30;54238;52.278;21.056;2022-09-09T16:37:13;16.15;78.70
67354;SHT30;54238;52.278;21.056;2022-09-09T16:39:44;16.13;78.71
67354;SHT30;54238;52.278;21.056;2022-09-09T16:42:13;16.09;78.63
67354;SHT30;54238;52.278;21.056;2022-09-09T16:44:40;16.06;78.66
67354;SHT30;54238;52.278;21.056;2022-09-09T16:47:10;16.03;78.70
67354;SHT30;54238;52.278;21.056;2022-09-09T16:49:37;16.00;78.68
67354;SHT30;54238;52.278;21.056;2022-09-09T16:52:06;15.98;78.70
67354;SHT30;54238;52.278;21.056;2022-09-09T16:54:36;15.95;78.70
67354;SHT30;54238;52.278;21.056;2022-09-09T16:57:05;15.92;78.68
67354;SHT30;54238;52.278;21.056;2022-09-09T16:59:37;15.92;78.69
67354;SHT30;54238;52.278;21.056;2022-09-09T17:02:07;15.92;78.71
67354;SHT30;54238;52.278;21.056;2022-09-09T17:04:37;15.89;78.76
67354;SHT30;54238;52.278;21.056;2022-09-09T17:07:07;15.87;78.82
67354;SHT30;54238;52.278;21.056;2022-09-09T17:09:34;15.86;78.90
67354;SHT30;54238;52.278;21.056;2022-09-09T17:12:01;15.84;78.91
67354;SHT30;54238;52.278;21.056;2022-09-09T17:14:35;15.82;78.93
67354;SHT30;54238;52.278;21.056;2022-09-09T17:17:02;15.80;78.92
67354;SHT30;54238;52.278;21.056;2022-09-09T17:19:31;15.76;78.91
67354;SHT30;54238;52.278;21.056;2022-09-09T17:22:03;15.72;78.95
67354;SHT30;54238;52.278;21.056;2022-09-09T17:24:34;15.69;79.01
67354;SHT30;54238;52.278;21.056;2022-09-09T17:27:05;15.69;79.04
67354;SHT30;54238;52.278;21.056;2022-09-09T17:29:36;15.68;79.00
67354;SHT30;54238;52.278;21.056;2022-09-09T17:32:08;15.68;79.02
67354;SHT30;54238;52.278;21.056;2022-09-09T17:34:37;15.65;79.01
67354;SHT30;54238;52.278;21.056;2022-09-09T17:37:06;15.62;79.08
67354;SHT30;54238;52.278;21.056;2022-09-09T17:39:34;15.60;79.24
67354;SHT30;54238;52.278;21.056;2022-09-09T17:42:04;15.58;79.38
67354;SHT30;54238;52.278;21.056;2022-09-09T17:44:38;15.59;79.38
67354;SHT30;54238;52.278;21.056;2022-09-09T17:47:08;15.60;79.42
67354;SHT30;54238;52.278;21.056;2022-09-09T17:49:35;15.59;79.44
67354;SHT30;54238;52.278;21.056;2022-09-09T17:52:04;15.60;79.37
67354;SHT30;54238;52.278;21.056;2022-09-09T17:54:33;15.59;79.41
67354;SHT30;54238;52.278;21.056;2022-09-09T17:57:01;15.60;79.38
67354;SHT30;54238;52.278;21.056;2022-09-09T17:59:30;15.60;79.37
67354;SHT30;54238;52.278;21.056;2022-09-09T18:02:00;15.59;79.34
67354;SHT30;54238;52.278;21.056;2022-09-09T18:04:27;15.57;79.36
67354;SHT30;54238;52.278;21.056;2022-09-09T18:06:59;15.56;79.35
67354;SHT30;54238;52.278;21.056;2022-09-09T18:09:29;15.55;79.39
67354;SHT30;54238;52.278;21.056;2022-09-09T18:11:57;15.56;79.41
67354;SHT30;54238;52.278;21.056;2022-09-09T18:14:30;15.56;79.35
67354;SHT30;54238;52.278;21.056;2022-09-09T18:17:02;15.54;79.37
67354;SHT30;54238;52.278;21.056;2022-09-09T18:19:30;15.52;79.38